Troy, Alabama
Current Conditions -  °F | °C
As of 6:53 PM on Monday 24 Nov 2014 (Local Time) from KTOI Reporting Station
Clear Clear  
Wind Chill: 65°   Ceiling: Unl
Heat Index: 65°   Visibility: 10mi
Dew Point: 53°   Wind: 8mph
Humidity: 65%   Direction: 320°NW
Pressure: 29.94"   Gusts: NA
Location:  31.81°N, 85.97°W
Report Text: KTOI 250053Z AUTO 32007KT 10SM CLR 18/12 A2994 RMK AO2 SLP136 T01830117
Loading
Personal Weather Stations






























Interactive Weather Map New forecast layout! Learn more

10-Day Weather Forecast

Advertisements
Track Severe Weather on mobile